Bookmark and Share
Track history (hours):
 

Frontier

More information available from US FCC via Universal Licensing System and Coast Guard Vessel Documentation Center.

Last reported at 2014-Apr-16 09:32 UTC. Time now 2014-Apr-16 19:20 UTC.
Position N 41°19' W 071°21'.

Length 28 m.

Type: Fishing. MMSI: 367131750.

NotesDate/timePositionNaut miles runAvg speedWind from/ knotsBaromVisibWave heightAir tempDewpointWater temp
2014-Apr-16 09:32N 41°19' W 071°21'8 8.6
2014-Apr-16 08:33N 41°17' W 071°32'8 7.6
2014-Apr-16 07:33N 41°12' W 071°40'6 6.5
2014-Apr-16 06:33N 41°06' W 071°44'6 6.4
2014-Apr-16 05:33N 41°02' W 071°51'7 7.3
2014-Apr-16 04:34N 40°60' W 071°60'8 8.1
2014-Apr-16 03:33N 40°56' W 072°10'8 8.3
2014-Apr-16 02:33N 40°53' W 072°19'8 8.3
2014-Apr-16 01:33N 40°49' W 072°30'22 0.7
2014-Apr-14 18:33N 40°27' W 072°35'2 1.2
2014-Apr-14 16:34N 40°26' W 072°32'12 2.4
2014-Apr-14 11:32N 40°14' W 072°32'1 0.7
2014-Apr-14 09:33N 40°13' W 072°32'1 0.7
2014-Apr-14 08:31N 40°13' W 072°32'1 1.4
2014-Apr-14 07:33N 40°15' W 072°32'0 0.3
2014-Apr-14 06:33N 40°15' W 072°31'1 1.1
2014-Apr-14 05:33N 40°14' W 072°32'1 0.1
2014-Apr-13 22:28N 40°13' W 072°31'0 0.2
2014-Apr-13 21:16N 40°14' W 072°32'0 0.5
2014-Apr-13 20:33N 40°14' W 072°32'0 0.2
2014-Apr-13 19:30N 40°14' W 072°32'1 0.5
2014-Apr-13 18:31N 40°15' W 072°32'0 0.2
2014-Apr-13 16:20N 40°15' W 072°32'0 0.4
2014-Apr-13 15:20N 40°15' W 072°32'1 1.7
2014-Apr-13 14:33N 40°14' W 072°32'1 1.0
2014-Apr-13 13:33N 40°13' W 072°32'1 1.0
2014-Apr-13 12:33N 40°14' W 072°32'1 0.8
2014-Apr-13 11:33N 40°13' W 072°32'0 0.4
2014-Apr-13 10:33N 40°13' W 072°32'0 0.3
2014-Apr-13 09:32N 40°13' W 072°32'1 1.0
2014-Apr-13 08:33N 40°12' W 072°32'2 1.6
2014-Apr-13 07:33N 40°14' W 072°32'1 1.3
2014-Apr-13 06:32N 40°15' W 072°32'0 0.2
2014-Apr-13 05:32N 40°15' W 072°32'2 1.7
2014-Apr-13 04:33N 40°13' W 072°32'1 0.7
2014-Apr-13 03:33N 40°13' W 072°32'0 0.1
2014-Apr-13 01:32N 40°13' W 072°32'2 1.6
2014-Apr-13 00:07N 40°15' W 072°32'1 0.5
2014-Apr-12 21:34N 40°14' W 072°32'1 1.0
2014-Apr-12 20:33N 40°15' W 072°32'1 0.1
2014-Apr-12 15:21N 40°14' W 072°33'2 0.8
2014-Apr-12 13:28N 40°15' W 072°31'1 0.8
2014-Apr-12 12:31N 40°16' W 072°32'1 0.1
2014-Apr-11 23:07N 40°15' W 072°32'1 1.5
2014-Apr-11 22:23N 40°14' W 072°31'4 4.5
2014-Apr-11 21:32N 40°18' W 072°32'2 1.6
2014-Apr-11 20:33N 40°19' W 072°30'3 2.9
2014-Apr-11 19:32N 40°21' W 072°28'1 0.7
2014-Apr-11 18:33N 40°22' W 072°28'1 1.1
2014-Apr-11 17:33N 40°21' W 072°27'4 4.2
2014-Apr-11 16:33N 40°18' W 072°30'13 1.3
2014-Apr-11 06:19N 40°16' W 072°48'4 4.5
2014-Apr-11 05:24N 40°20' W 072°49'2 1.9
2014-Apr-11 04:33N 40°22' W 072°50'1 0.8
2014-Apr-11 03:34N 40°21' W 072°49'1 1.0
2014-Apr-11 02:33N 40°20' W 072°50'0 0.1
2014-Apr-11 01:32N 40°20' W 072°50'1 1.3
2014-Apr-11 00:33N 40°21' W 072°50'6 2.8
2014-Apr-10 22:31N 40°27' W 072°49'1 1.4
2014-Apr-10 21:33N 40°26' W 072°49'1 1.2
2014-Apr-10 20:33N 40°25' W 072°51'1 0.7
2014-Apr-10 19:33N 40°26' W 072°51'4 3.9
2014-Apr-10 18:33N 40°22' W 072°51'4 3.7
2014-Apr-10 17:32N 40°19' W 072°54'6 0.1
2014-Apr-08 17:06N 40°13' W 072°52'13 0.7
2014-Apr-07 20:32N 40°01' W 073°02'1 0.5
2014-Apr-07 19:32N 40°02' W 073°02'1 0.3
2014-Apr-07 17:17N 40°02' W 073°02'0 0.2
2014-Apr-07 16:33N 40°02' W 073°01'1 1.3
2014-Apr-07 15:32N 40°01' W 073°03'2 1.5
2014-Apr-07 14:33N 40°02' W 073°01'1 1.3
2014-Apr-07 13:30N 40°02' W 073°03'1 1.5
2014-Apr-07 12:33N 40°02' W 073°01'1 1.5
2014-Apr-07 11:33N 40°02' W 073°03'0 0.2
2014-Apr-07 09:33N 40°01' W 073°03'1 1.2
2014-Apr-07 08:33N 40°01' W 073°02'2 1.8
2014-Apr-07 07:34N 40°01' W 073°04'2 1.9
2014-Apr-07 06:34N 40°02' W 073°02'2 2.0
2014-Apr-07 05:33N 40°01' W 073°04'0 0.1
2014-Apr-07 04:33N 40°01' W 073°04'0 0.5
2014-Apr-07 03:32N 40°02' W 073°05'1 0.9
2014-Apr-07 02:05N 40°01' W 073°03'2 3.2
2014-Apr-07 01:33N 40°01' W 073°05'  

Dump ship's entire track history

sailing weather and tide predictions

Frontier — WBB3569 — position and weather